Saturday, February 24, 2018, 3:17 AM EST
Back to Local

KPSM, Pease Air Force Base / Portsmouth

Location: Portsmouth, NH, United States Lat: 43.083
Local Time: 3:17 AM EST ( 8:17 GMT) Lon: -70.817
Time Zone: US/Eastern Elev: 101 ft

Show me the last for .
Show Decoded

2018-02-24 01:56 METAR KPSM 240656Z 24005KT 10SM BKN007 02/02 A2997 RMK AO2A SLP152 T00200016 =
2018-02-24 00:56 METAR KPSM 240556Z 24005KT 10SM OVC007 02/01 A3000 RMK AO2A SLP162 60003
                 T00180014 10019 20016 57047 =
2018-02-23 23:56 METAR KPSM 240456Z 19004KT 7SM BKN007 OVC014 02/01 A3002 RMK AO2A PRESFR SLP169
                 T00170014 400371054 =
2018-02-23 22:56 METAR KPSM 240356Z 19004KT 3SM BR OVC005 02/02 A3008 RMK AO2A RAE13DZB13E37
                 PRESFR SLP189 P0000 T00160015 =
2018-02-23 22:37 METAR KPSM 240337Z 21006KT 2SM BR OVC004 02/02 A3010 RMK AO2A RAE13DZB13E37 =
2018-02-23 22:14 METAR KPSM 240314Z 21004KT 1 1/4SM -DZ BR OVC003 02/02 A3012 RMK AO2A RAE13DZB13
                 PRESFR =
2018-02-23 21:56 METAR KPSM 240256Z 18005KT 1SM R16/P6000FT -RA BR OVC003 02/02 A3014 RMK AO2A
                 SLP210 P0001 60003 T00160015 57040 =
2018-02-23 21:11 METAR KPSM 240211Z 20003KT 1SM R16/P6000FT -RA BR BKN003 OVC008 02/01 A3018 RMK
                 AO2A =
2018-02-23 20:56 METAR KPSM 240156Z 20004KT 1SM R16/P6000FT -RA BR SCT003 OVC008 02/01 A3019 RMK
                 AO2A SLP227 P0000 T00170013 =
2018-02-23 20:47 METAR KPSM 240147Z 19005KT 1SM R16/P6000FT -RA BR SCT003 OVC010 02/01 A3019 RMK
                 AO2A =
2018-02-23 19:56 METAR KPSM 240056Z 18006KT 4SM -RA BR FEW006 BKN011 OVC020 02/01 A3023 RMK AO2A
                 PRESFR SLP240 P0002 T00180011 =
2018-02-23 19:33 METAR KPSM 240033Z 18005KT 2SM -RA BR FEW006 BKN011 OVC016 02/01 A3026 RMK AO2A
                 =
2018-02-23 19:05 METAR KPSM 240005Z 16009KT 5SM -RA BR SCT008 BKN016 OVC025 02/01 A3025 RMK AO2A
                 =
2018-02-23 18:56 METAR KPSM 232356Z 16009KT 5SM -RA BR FEW008 SCT018 OVC026 02/01 A3026 RMK AO2A
                 SLP250 P0003 60004 T00180011 10037 20018 57055 =
2018-02-23 18:33 METAR KPSM 232333Z 15007KT 6SM -RA BR SCT018 OVC026 02/01 A3028 RMK AO2A PRESFR
                 =
2018-02-23 17:56 METAR KPSM 232256Z 16009KT 6SM -RA BR SCT012 BKN015 OVC022 02/01 A3032 RMK AO2A
                 SLP271 P0001 T00180006 =
2018-02-23 17:32 METAR KPSM 232232Z 15009KT 6SM -RA BR FEW011 BKN020 OVC034 02/00 A3033 RMK AO2A
                 PRESFR =
2018-02-23 17:16 METAR KPSM 232216Z 15007KT 5SM -RA BR SCT020 OVC032 02/00 A3035 RMK AO2A PRESFR
                 =
2018-02-23 16:56 METAR KPSM 232156Z 15008KT 6SM -RA BR BKN020 OVC038 02/00 A3038 RMK AO2A RAB32
                 SLP291 P0000 T00231005 =
2018-02-23 16:32 METAR KPSM 232132Z 16011KT 7SM -RA SCT022 OVC040 03/M02 A3039 RMK AO2A =
2018-02-23 15:56 METAR KPSM 232056Z 15010KT 10SM FEW026 BKN042 BKN100 OVC250 03/M02 A3042 RMK
                 AO2A SLP305 T00311024 57045 =
2018-02-23 14:56 METAR KPSM 231956Z 14013KT 10SM FEW030 SCT065 BKN100 OVC250 03/M03 A3045 RMK
                 AO2A SLP315 T00311031 =
2018-02-23 14:34 METAR KPSM 231934Z 14012KT 10SM SCT030 BKN100 OVC250 03/M03 A3047 RMK AO2A
                 PRESFR =
2018-02-23 13:56 METAR KPSM 231856Z 13011KT 10SM BKN029 BKN120 OVC200 03/M03 A3051 RMK AO2A
                 SLP335 T00341028 =
2018-02-23 13:51 METAR KPSM 231851Z 11011KT 10SM BKN029 BKN120 OVC200 03/M03 A3051 RMK AO2A =
2018-02-23 12:56 METAR KPSM 231756Z 14010KT 10SM SCT032 BKN110 BKN200 03/M03 A3055 RMK AO2A
                 PRESFR SLP349 4/001 T00311033 10036 21050 57037 =
2018-02-23 11:56 METAR KPSM 231656Z 16007KT 10SM SCT035 SCT120 BKN250 03/M04 A3061 RMK AO2A
                 SLP369 T00321043 =
2018-02-23 10:56 METAR KPSM 231556Z 10009KT 10SM FEW030 SCT120 BKN250 02/M05 A3063 RMK AO2A
                 SLP376 T00231049 =
2018-02-23 09:56 METAR KPSM 231456Z 00000KT 10SM FEW130 BKN250 01/M03 A3066 RMK AO2A SLP386
                 T00141033 58010 =
2018-02-23 08:56 METAR KPSM 231356Z COR 03003KT 10SM SCT130 BKN250 M01/M04 A3068 RMK AO2A SLP393
                 T10091041 COR 1357 =
2018-02-23 07:56 METAR KPSM 231256Z 00000KT 10SM SCT130 BKN250 M04/M05 A3069 RMK AO2A SLP396
                 T10371050 =
2018-02-23 06:56 METAR KPSM 231156Z 00000KT 10SM FEW090 BKN250 M05/M05 A3069 RMK AO2A SLP396
                 70011 4/001 T10461054 11025 21054 55004 =
2018-02-23 05:56 METAR KPSM 231056Z VRB02KT 10SM FEW090 SCT250 M04/M05 A3069 RMK AO2A SLP396
                 T10421049 =
2018-02-23 04:56 METAR KPSM 230956Z VRB03KT 10SM FEW080 M04/M05 A3069 RMK AO2A SLP396 T10401046 =
2018-02-23 03:56 METAR KPSM 230856Z 00000KT 4SM BR FEW003 FEW080 M05/M06 A3070 RMK AO2A SLP400
                 T10511058 50010 =

Support USWX by starting your Amazon purchase here.